Time;durP1;ratioP1;P1;durP2;ratioP2;P2;SDS_P1;SDS_P2;PMS_P1;PMS_P2;Temp;Humidity;BMP_temperature;BMP_pressure;BME280_temperature;BME280_humidity;BME280_pressure;Samples;Min_cycle;Max_cycle;Signal;HPM_P1;HPM_P2
2023/07/01 00:00:35;;;;;;;4.82;2.40;;;17.50;99.90;;;;;;5051241;28;20025;-53
2023/07/01 00:03:03;;;;;;;4.40;2.33;;;17.50;99.90;;;;;;5050811;28;20497;-60
2023/07/01 00:05:28;;;;;;;6.63;2.00;;;17.50;99.90;;;;;;5050899;28;20017;-58
2023/07/01 00:07:54;;;;;;;3.35;2.40;;;17.50;99.90;;;;;;5051401;28;20036;-55
2023/07/01 00:10:19;;;;;;;4.93;2.13;;;17.50;99.90;;;;;;5054872;28;20035;-60
2023/07/01 00:12:45;;;;;;;5.05;2.80;;;17.50;99.90;;;;;;5054836;28;20341;-58
2023/07/01 00:15:11;;;;;;;3.92;2.08;;;17.40;99.90;;;;;;5053440;28;20119;-58
2023/07/01 00:17:36;;;;;;;3.42;2.47;;;17.50;99.90;;;;;;5054690;28;20024;-58
2023/07/01 00:20:02;;;;;;;4.80;2.33;;;17.40;99.90;;;;;;5054655;28;20532;-58
2023/07/01 00:22:28;;;;;;;4.47;2.30;;;17.50;99.90;;;;;;5054577;28;20459;-59
2023/07/01 00:24:53;;;;;;;3.88;2.22;;;17.40;99.90;;;;;;5054444;28;20040;-58
2023/07/01 00:27:19;;;;;;;7.53;2.67;;;17.50;99.90;;;;;;5054481;28;20055;-60
2023/07/01 00:29:44;;;;;;;5.82;2.35;;;17.50;99.90;;;;;;5054413;28;20033;-58
2023/07/01 00:32:10;;;;;;;6.20;2.60;;;17.50;99.90;;;;;;5054549;28;20029;-58
2023/07/01 00:34:36;;;;;;;4.38;2.47;;;17.50;99.90;;;;;;5054377;28;20024;-56
2023/07/01 00:37:02;;;;;;;7.63;2.17;;;17.50;99.90;;;;;;5054150;28;20086;-56
2023/07/01 00:39:28;;;;;;;4.68;2.33;;;17.50;99.90;;;;;;5054279;28;20494;-56
2023/07/01 00:41:53;;;;;;;4.45;2.33;;;17.50;99.90;;;;;;5054167;28;20036;-54
2023/07/01 00:44:21;;;;;;;3.03;2.15;;;17.50;99.90;;;;;;5054136;28;20033;-61
2023/07/01 00:46:46;;;;;;;5.80;2.35;;;17.60;99.90;;;;;;5053917;28;20021;-57
2023/07/01 00:49:12;;;;;;;4.05;2.60;;;17.60;99.90;;;;;;5054209;28;20025;-58
2023/07/01 00:51:38;;;;;;;8.50;2.25;;;17.60;99.90;;;;;;5054089;28;20033;-60
2023/07/01 00:54:04;;;;;;;6.30;2.30;;;17.50;99.90;;;;;;5053885;28;20029;-58
2023/07/01 00:56:30;;;;;;;7.20;2.13;;;17.60;99.90;;;;;;5054010;28;20025;-58
2023/07/01 00:58:56;;;;;;;4.43;2.50;;;17.60;99.90;;;;;;5053791;28;20049;-58
2023/07/01 01:01:28;;;;;;;5.50;2.30;;;17.50;99.90;;;;;;5053947;28;20126;-60
2023/07/01 01:04:01;;;;;;;3.20;2.20;;;17.60;99.90;;;;;;5053804;28;20021;-60
2023/07/01 01:06:36;;;;;;;6.28;2.13;;;17.60;99.90;;;;;;5053687;28;20108;-60
2023/07/01 01:09:12;;;;;;;4.40;1.90;;;17.60;99.90;;;;;;5053732;28;20093;-59
2023/07/01 01:11:43;;;;;;;4.18;2.55;;;17.70;99.90;;;;;;5053851;28;20029;-60
2023/07/01 01:14:11;;;;;;;2.97;2.25;;;17.70;99.90;;;;;;5053752;28;20033;-58
2023/07/01 01:16:42;;;;;;;5.40;2.00;;;17.80;99.90;;;;;;5053523;28;20422;-58
2023/07/01 01:19:36;;;;;;;7.63;2.20;;;17.80;99.90;;;;;;5052939;28;20033;-61
2023/07/01 01:22:30;;;;;;;2.92;2.17;;;17.70;99.90;;;;;;5053578;28;20112;-60
2023/07/01 01:25:00;;;;;;;3.25;1.73;;;17.70;99.90;;;;;;5053405;28;20017;-60
2023/07/01 01:27:28;;;;;;;2.20;1.63;;;17.60;99.90;;;;;;5053115;28;20143;-59
2023/07/01 01:29:54;;;;;;;5.47;2.42;;;17.60;99.90;;;;;;5053343;28;20036;-59
2023/07/01 01:32:19;;;;;;;7.28;2.30;;;17.60;99.90;;;;;;5053524;28;20021;-60
2023/07/01 01:34:46;;;;;;;5.60;2.17;;;17.70;99.90;;;;;;5053078;28;20033;-59
2023/07/01 01:37:24;;;;;;;8.93;2.47;;;17.60;99.90;;;;;;5053080;28;20021;-60
2023/07/01 01:39:56;;;;;;;5.05;2.50;;;17.60;99.90;;;;;;5052893;28;20091;-54
2023/07/01 01:42:28;;;;;;;2.47;1.77;;;17.70;99.90;;;;;;5053265;28;20021;-60
2023/07/01 01:44:55;;;;;;;5.07;2.72;;;17.70;99.90;;;;;;5053209;28;20032;-57
2023/07/01 01:47:28;;;;;;;6.30;2.45;;;17.70;99.90;;;;;;5053026;28;20104;-60
2023/07/01 01:49:58;;;;;;;4.68;2.22;;;17.70;99.90;;;;;;5053047;28;20114;-58
2023/07/01 01:52:24;;;;;;;6.80;2.55;;;17.60;99.90;;;;;;5053129;28;20041;-57
2023/07/01 01:54:53;;;;;;;3.03;1.73;;;17.70;99.90;;;;;;5052894;28;20032;-58
2023/07/01 01:57:20;;;;;;;2.83;2.22;;;17.70;99.90;;;;;;5052906;28;20036;-56
2023/07/01 01:59:46;;;;;;;7.90;2.20;;;17.70;99.90;;;;;;5052854;28;20035;-60
2023/07/01 02:02:12;;;;;;;3.67;2.25;;;17.70;99.90;;;;;;5052977;28;20454;-55
2023/07/01 02:04:38;;;;;;;18.50;2.40;;;17.70;99.90;;;;;;5052675;28;20031;-53
2023/07/01 02:07:04;;;;;;;3.80;1.95;;;17.80;99.90;;;;;;5052476;28;20102;-55
2023/07/01 02:09:29;;;;;;;10.52;2.47;;;17.80;99.90;;;;;;5052696;28;20053;-60
2023/07/01 02:11:55;;;;;;;3.95;1.92;;;17.80;99.90;;;;;;5052664;28;20029;-58
2023/07/01 02:14:22;;;;;;;6.45;2.17;;;17.90;99.90;;;;;;5052559;28;20024;-59
2023/07/01 02:16:48;;;;;;;3.15;1.80;;;18.00;99.90;;;;;;5052281;28;20029;-59
2023/07/01 02:19:14;;;;;;;2.97;1.60;;;18.00;99.90;;;;;;5052468;28;20029;-58
2023/07/01 02:21:40;;;;;;;2.88;1.90;;;18.10;99.90;;;;;;5052441;28;20037;-56
2023/07/01 02:24:05;;;;;;;5.43;1.85;;;18.10;99.90;;;;;;5052503;28;20044;-61
2023/07/01 02:26:31;;;;;;;2.33;2.10;;;18.20;99.90;;;;;;5052375;28;20025;-60
2023/07/01 02:28:56;;;;;;;6.18;2.22;;;18.20;99.90;;;;;;5052183;28;20502;-53
2023/07/01 02:31:22;;;;;;;5.68;2.53;;;18.20;99.90;;;;;;5051427;28;20036;-60
2023/07/01 02:33:50;;;;;;;6.25;1.77;;;18.30;99.90;;;;;;5051942;28;20078;-59
2023/07/01 02:36:15;;;;;;;5.32;1.70;;;18.30;99.90;;;;;;5052127;28;20036;-59
2023/07/01 02:38:41;;;;;;;3.65;1.92;;;18.30;99.90;;;;;;5051969;28;20029;-61
2023/07/01 02:41:07;;;;;;;5.68;2.00;;;18.30;99.90;;;;;;5051985;28;20081;-55
2023/07/01 02:43:32;;;;;;;3.45;1.65;;;18.30;99.90;;;;;;5051935;28;20107;-61
2023/07/01 02:45:58;;;;;;;4.40;1.90;;;18.30;99.90;;;;;;5051880;28;20021;-53
2023/07/01 02:48:23;;;;;;;3.53;1.73;;;18.30;99.90;;;;;;5051743;28;20029;-56
2023/07/01 02:50:49;;;;;;;2.10;1.75;;;18.30;99.90;;;;;;5051901;28;20021;-60
2023/07/01 02:53:15;;;;;;;4.78;2.30;;;18.30;99.90;;;;;;5051832;28;20031;-59
2023/07/01 02:55:41;;;;;;;2.67;1.83;;;18.30;99.90;;;;;;5051744;28;20434;-61
2023/07/01 02:58:07;;;;;;;5.97;2.00;;;18.30;99.90;;;;;;5051635;28;20032;-58
2023/07/01 03:00:32;;;;;;;8.73;1.90;;;18.30;99.90;;;;;;5051841;28;20108;-59
2023/07/01 03:03:07;;;;;;;8.90;1.90;;;18.30;99.90;;;;;;5051430;28;20033;-59
2023/07/01 03:05:36;;;;;;;6.28;2.03;;;18.30;99.90;;;;;;5051646;28;20495;-60
2023/07/01 03:08:03;;;;;;;4.10;2.30;;;18.30;99.90;;;;;;5051540;28;20033;-58
2023/07/01 03:10:28;;;;;;;5.78;1.80;;;18.30;99.90;;;;;;5051863;28;20017;-59
2023/07/01 03:12:55;;;;;;;6.07;2.03;;;18.30;99.90;;;;;;5051849;28;20028;-56
2023/07/01 03:15:20;;;;;;;7.40;1.92;;;18.30;99.90;;;;;;5051743;28;20029;-58
2023/07/01 03:17:47;;;;;;;2.80;1.60;;;18.30;99.90;;;;;;5051205;28;20388;-55
2023/07/01 03:20:22;;;;;;;7.80;2.10;;;18.30;99.90;;;;;;5051669;28;20570;-59
2023/07/01 03:22:52;;;;;;;6.78;1.52;;;18.40;99.90;;;;;;5051439;28;20108;-58
2023/07/01 03:25:18;;;;;;;4.68;1.95;;;18.40;99.90;;;;;;5051236;28;20441;-58
2023/07/01 03:27:45;;;;;;;2.25;1.60;;;18.40;99.90;;;;;;5051274;28;20017;-55
2023/07/01 03:30:15;;;;;;;2.25;1.65;;;18.40;99.90;;;;;;5051404;28;20032;-57
2023/07/01 03:32:42;;;;;;;3.92;1.70;;;18.40;99.90;;;;;;5051802;28;20457;-60
2023/07/01 03:35:09;;;;;;;2.65;1.65;;;18.40;99.90;;;;;;5051119;28;20479;-57
2023/07/01 03:37:44;;;;;;;5.88;2.25;;;18.40;99.90;;;;;;5051230;28;20035;-57
2023/07/01 03:40:10;;;;;;;6.47;2.08;;;18.40;99.90;;;;;;5051624;28;20121;-54
2023/07/01 03:42:39;;;;;;;3.20;2.00;;;18.40;99.90;;;;;;5050895;28;20085;-58
2023/07/01 03:45:07;;;;;;;3.17;1.48;;;18.40;99.90;;;;;;5051007;28;20033;-57
2023/07/01 03:47:43;;;;;;;6.43;2.00;;;18.40;99.90;;;;;;5050943;28;20410;-57
2023/07/01 03:50:13;;;;;;;5.15;1.95;;;18.40;99.90;;;;;;5051184;28;20021;-58
2023/07/01 03:52:39;;;;;;;6.22;1.83;;;18.30;99.90;;;;;;5051091;28;20029;-58
2023/07/01 03:55:07;;;;;;;3.13;1.77;;;18.40;99.90;;;;;;5050883;28;20025;-59
2023/07/01 03:57:33;;;;;;;7.18;2.20;;;18.30;99.90;;;;;;5050873;28;20427;-58
2023/07/01 03:59:59;;;;;;;5.55;2.38;;;18.40;99.90;;;;;;5051085;28;20108;-58
2023/07/01 04:02:25;;;;;;;6.22;2.17;;;18.30;99.90;;;;;;5051081;28;20561;-58
2023/07/01 04:04:51;;;;;;;8.55;2.67;;;18.30;99.90;;;;;;5050927;28;20025;-59
2023/07/01 04:07:21;;;;;;;8.65;2.35;;;18.20;99.90;;;;;;5050826;28;20108;-58
2023/07/01 04:09:48;;;;;;;6.65;2.42;;;18.20;99.90;;;;;;5050777;28;20026;-59
2023/07/01 04:12:14;;;;;;;4.25;2.13;;;18.10;99.90;;;;;;5050989;28;20104;-60
2023/07/01 04:14:39;;;;;;;6.38;2.30;;;18.10;99.90;;;;;;5050803;28;20102;-60
2023/07/01 04:17:05;;;;;;;3.90;2.10;;;18.10;99.90;;;;;;5050581;28;20041;-55
2023/07/01 04:19:31;;;;;;;5.70;2.20;;;18.00;99.90;;;;;;5050882;28;20032;-58
2023/07/01 04:21:56;;;;;;;3.33;1.70;;;18.00;99.90;;;;;;5050667;28;20032;-59
2023/07/01 04:24:22;;;;;;;3.35;1.98;;;18.00;99.90;;;;;;5050679;28;20029;-58
2023/07/01 04:26:48;;;;;;;5.22;1.92;;;18.10;99.90;;;;;;5050481;28;20029;-57
2023/07/01 04:29:14;;;;;;;2.35;1.77;;;18.10;99.90;;;;;;5050989;28;20033;-56
2023/07/01 04:31:39;;;;;;;4.63;1.77;;;18.10;99.90;;;;;;5050769;28;20021;-60
2023/07/01 04:34:05;;;;;;;6.90;1.77;;;18.10;99.90;;;;;;5050682;28;20510;-58
2023/07/01 04:36:30;;;;;;;6.97;2.20;;;18.10;99.90;;;;;;5050722;28;20070;-58
2023/07/01 04:38:56;;;;;;;5.00;1.80;;;18.20;99.90;;;;;;5050449;28;20025;-57
2023/07/01 04:41:21;;;;;;;5.25;1.88;;;18.10;99.90;;;;;;5050624;28;20483;-60
2023/07/01 04:43:47;;;;;;;3.60;2.10;;;18.10;99.90;;;;;;5050446;28;20513;-60
2023/07/01 04:46:12;;;;;;;3.22;1.63;;;18.10;99.90;;;;;;5050653;28;20481;-56
2023/07/01 04:48:38;;;;;;;12.15;2.67;;;18.10;99.90;;;;;;5050414;28;20059;-59
2023/07/01 04:51:04;;;;;;;5.07;1.67;;;18.10;99.90;;;;;;5050629;28;20068;-59
2023/07/01 04:53:29;;;;;;;2.88;1.73;;;18.10;99.90;;;;;;5050592;28;20032;-56
2023/07/01 04:55:55;;;;;;;4.90;1.90;;;18.10;99.90;;;;;;5054091;28;20479;-56
2023/07/01 04:58:21;;;;;;;2.50;1.80;;;18.10;99.90;;;;;;5054118;28;20029;-60
2023/07/01 05:00:46;;;;;;;4.05;2.00;;;18.00;99.90;;;;;;5054152;28;20025;-60
2023/07/01 05:03:12;;;;;;;4.85;1.85;;;18.00;99.90;;;;;;5054129;28;20021;-58
2023/07/01 05:05:38;;;;;;;4.70;2.03;;;18.00;99.90;;;;;;5054261;28;20467;-58
2023/07/01 05:08:03;;;;;;;2.90;1.85;;;18.00;99.90;;;;;;5053929;28;20466;-55
2023/07/01 05:10:29;;;;;;;4.30;1.98;;;18.10;99.90;;;;;;5054115;28;20017;-55
2023/07/01 05:12:55;;;;;;;3.25;1.85;;;18.10;99.90;;;;;;5053977;28;20059;-52
2023/07/01 05:15:21;;;;;;;5.15;1.85;;;18.20;99.90;;;;;;5054098;28;20048;-60
2023/07/01 05:17:47;;;;;;;6.38;1.98;;;18.30;99.90;;;;;;5053754;28;20036;-57
2023/07/01 05:20:12;;;;;;;7.03;1.58;;;18.30;99.90;;;;;;5053894;28;20500;-60
2023/07/01 05:22:38;;;;;;;6.70;1.92;;;18.30;99.90;;;;;;5053829;28;20043;-59
2023/07/01 05:25:04;;;;;;;5.43;2.30;;;18.40;99.90;;;;;;5053721;28;20047;-58
2023/07/01 05:27:30;;;;;;;5.82;1.75;;;18.40;99.90;;;;;;5053691;28;20017;-59
2023/07/01 05:29:57;;;;;;;2.40;1.60;;;18.40;99.90;;;;;;5053723;28;20045;-55
2023/07/01 05:32:23;;;;;;;4.35;1.63;;;18.40;99.90;;;;;;5053862;28;20067;-59
2023/07/01 05:34:48;;;;;;;3.13;1.40;;;18.50;99.90;;;;;;5053619;28;20033;-59
2023/07/01 05:37:14;;;;;;;5.57;2.58;;;18.50;99.90;;;;;;5053640;28;20036;-58
2023/07/01 05:39:39;;;;;;;2.58;1.52;;;18.60;99.90;;;;;;5053568;28;20028;-58
2023/07/01 05:42:05;;;;;;;6.45;1.88;;;18.60;99.90;;;;;;5053351;28;20033;-60
2023/07/01 05:44:31;;;;;;;5.25;2.05;;;18.60;99.90;;;;;;5053372;28;20475;-59
2023/07/01 05:46:56;;;;;;;3.95;1.63;;;18.60;99.90;;;;;;5053215;28;20522;-59
2023/07/01 05:49:22;;;;;;;4.80;2.00;;;18.70;99.90;;;;;;5053343;28;20096;-57
2023/07/01 05:51:48;;;;;;;4.30;1.55;;;18.70;99.90;;;;;;5053899;28;20052;-61
2023/07/01 05:54:13;;;;;;;5.22;1.73;;;18.70;99.90;;;;;;5053222;28;20037;-61
2023/07/01 05:56:39;;;;;;;4.82;2.00;;;18.80;99.90;;;;;;5053267;28;20025;-60
2023/07/01 05:59:04;;;;;;;6.60;1.90;;;18.80;99.90;;;;;;5052877;28;20104;-60
2023/07/01 06:01:30;;;;;;;3.35;1.88;;;18.80;99.90;;;;;;5052973;28;20055;-60
2023/07/01 06:03:56;;;;;;;3.72;2.05;;;18.90;99.90;;;;;;5052819;28;20025;-60
2023/07/01 06:06:21;;;;;;;4.45;1.70;;;18.90;99.90;;;;;;5052878;28;20538;-59
2023/07/01 06:08:48;;;;;;;11.80;2.55;;;18.90;99.90;;;;;;5052636;28;20021;-59
2023/07/01 06:11:14;;;;;;;6.38;2.00;;;19.00;99.90;;;;;;5052948;28;20033;-59
2023/07/01 06:13:45;;;;;;;5.72;2.17;;;19.00;99.90;;;;;;5052879;28;20464;-58
2023/07/01 06:16:11;;;;;;;3.67;2.20;;;19.00;99.90;;;;;;5052909;28;20398;-61
2023/07/01 06:18:36;;;;;;;6.07;2.10;;;19.00;99.90;;;;;;5052583;28;20036;-58
2023/07/01 06:21:06;;;;;;;4.22;2.38;;;19.00;99.90;;;;;;5052459;28;20025;-59
2023/07/01 06:23:32;;;;;;;3.88;1.85;;;19.10;99.90;;;;;;5052663;28;20036;-61
2023/07/01 06:25:58;;;;;;;6.97;2.10;;;19.00;99.90;;;;;;5052427;28;20024;-61
2023/07/01 06:28:23;;;;;;;3.55;2.03;;;19.00;99.90;;;;;;5052332;28;20020;-61
2023/07/01 06:30:49;;;;;;;5.75;1.95;;;19.00;99.90;;;;;;5052501;28;20503;-58
2023/07/01 06:33:14;;;;;;;4.97;1.95;;;19.00;99.90;;;;;;5052390;28;20025;-55
2023/07/01 06:35:41;;;;;;;5.43;2.08;;;18.90;99.90;;;;;;5052170;28;20074;-59
2023/07/01 06:38:07;;;;;;;8.25;2.30;;;18.90;99.90;;;;;;5052099;28;20495;-59
2023/07/01 06:40:33;;;;;;;7.53;2.63;;;18.70;99.90;;;;;;5052230;28;20044;-59
2023/07/01 06:42:58;;;;;;;6.20;2.67;;;18.60;99.90;;;;;;5051990;28;20035;-61
2023/07/01 06:45:24;;;;;;;3.33;2.40;;;18.30;99.90;;;;;;5052271;28;20032;-59
2023/07/01 06:47:49;;;;;;;4.50;2.53;;;18.30;99.90;;;;;;5051885;28;20096;-61
2023/07/01 06:50:15;;;;;;;5.95;2.22;;;18.20;99.90;;;;;;5051975;28;20100;-61
2023/07/01 06:52:40;;;;;;;9.65;2.25;;;18.00;99.90;;;;;;5052288;28;20025;-56
2023/07/01 06:55:07;;;;;;;2.85;1.80;;;18.00;99.90;;;;;;5051793;28;20451;-60
2023/07/01 06:57:33;;;;;;;4.93;2.15;;;17.90;99.90;;;;;;5051883;28;20025;-61
2023/07/01 06:59:59;;;;;;;5.13;2.28;;;17.90;99.90;;;;;;5051821;28;20048;-61
2023/07/01 07:02:25;;;;;;;5.82;2.28;;;18.00;99.90;;;;;;5051946;28;20059;-59
2023/07/01 07:04:52;;;;;;;8.38;2.35;;;18.00;99.90;;;;;;5051642;28;20495;-60
2023/07/01 07:07:18;;;;;;;9.18;2.95;;;17.90;99.90;;;;;;5051628;28;20044;-56
2023/07/01 07:09:44;;;;;;;13.23;2.30;;;17.70;99.90;;;;;;5051825;28;20096;-60
2023/07/01 07:12:10;;;;;;;4.90;2.00;;;17.80;99.90;;;;;;5051767;28;20488;-57
2023/07/01 07:14:35;;;;;;;4.20;2.00;;;17.70;99.90;;;;;;5051604;28;20483;-56
2023/07/01 07:17:01;;;;;;;4.28;2.28;;;17.90;99.90;;;;;;5050886;28;20491;-58
2023/07/01 07:19:26;;;;;;;4.13;2.22;;;18.00;99.90;;;;;;5051945;28;20029;-61
2023/07/01 07:21:52;;;;;;;9.55;2.00;;;17.90;99.90;;;;;;5053286;28;20036;-59
2023/07/01 07:24:18;;;;;;;4.22;2.38;;;18.00;99.90;;;;;;5053243;28;20017;-59
2023/07/01 07:27:00;;;;;;;4.50;2.35;;;17.90;99.90;;;;;;5052371;28;20458;-59
2023/07/01 07:29:29;;;;;;;11.27;2.58;;;18.00;99.90;;;;;;5051520;28;20059;-58
2023/07/01 07:31:55;;;;;;;5.45;2.50;;;18.20;99.90;;;;;;5051291;28;20476;-59
2023/07/01 07:34:21;;;;;;;6.15;2.00;;;18.30;99.90;;;;;;5051231;28;20108;-61
2023/07/01 07:36:47;;;;;;;3.97;2.20;;;18.40;99.90;;;;;;5050944;28;20483;-58
2023/07/01 07:39:14;;;;;;;7.15;2.25;;;18.50;99.90;;;;;;5051420;28;20043;-59
2023/07/01 07:41:40;;;;;;;8.18;2.50;;;18.60;99.90;;;;;;5051161;28;20032;-59
2023/07/01 07:44:06;;;;;;;5.15;2.28;;;18.40;99.90;;;;;;5051071;28;20028;-61
2023/07/01 07:46:33;;;;;;;13.85;3.22;;;18.50;99.90;;;;;;5051070;28;20032;-62
2023/07/01 07:48:58;;;;;;;4.03;2.20;;;18.50;99.90;;;;;;5050914;28;20021;-61
2023/07/01 07:51:24;;;;;;;4.47;1.90;;;18.50;99.90;;;;;;5051350;28;20475;-61
2023/07/01 07:53:50;;;;;;;4.55;2.10;;;18.50;99.90;;;;;;5051072;28;20537;-59
2023/07/01 07:56:15;;;;;;;4.78;1.83;;;18.50;99.90;;;;;;5051133;28;20471;-58
2023/07/01 07:58:41;;;;;;;4.78;2.10;;;18.50;99.90;;;;;;5051057;28;20083;-60
2023/07/01 08:01:06;;;;;;;3.90;1.77;;;18.60;99.90;;;;;;5050994;28;20036;-57
2023/07/01 08:03:32;;;;;;;2.80;1.80;;;18.50;99.90;;;;;;5051046;28;20041;-53
2023/07/01 08:05:57;;;;;;;9.00;2.20;;;18.50;99.90;;;;;;5050904;28;20032;-61
2023/07/01 08:08:23;;;;;;;2.97;1.90;;;18.50;99.90;;;;;;5050761;28;20028;-59
2023/07/01 08:10:48;;;;;;;3.17;1.70;;;18.50;99.90;;;;;;5050845;28;20107;-59
2023/07/01 08:13:14;;;;;;;5.35;1.83;;;18.30;99.90;;;;;;5050970;28;20063;-61
2023/07/01 08:15:41;;;;;;;3.17;1.33;;;18.30;99.90;;;;;;5050772;28;20033;-61
2023/07/01 08:18:07;;;;;;;4.03;1.35;;;18.30;99.90;;;;;;5050681;28;20029;-60
2023/07/01 08:20:33;;;;;;;3.03;1.63;;;18.30;99.90;;;;;;5050993;28;20029;-58
2023/07/01 08:22:59;;;;;;;3.25;1.63;;;18.20;99.90;;;;;;5050857;28;20091;-57
2023/07/01 08:25:24;;;;;;;3.10;1.70;;;18.20;99.90;;;;;;5050973;28;20029;-59
2023/07/01 08:27:50;;;;;;;1.88;1.30;;;18.20;99.90;;;;;;5050732;28;20025;-57
2023/07/01 08:30:16;;;;;;;5.78;1.60;;;18.20;99.90;;;;;;5053693;28;20099;-57
2023/07/01 08:32:42;;;;;;;2.50;1.52;;;18.20;99.90;;;;;;5054796;28;20479;-57
2023/07/01 08:35:08;;;;;;;5.40;1.58;;;18.30;99.90;;;;;;5054427;28;20548;-60
2023/07/01 08:37:34;;;;;;;3.38;1.30;;;18.30;99.90;;;;;;5054334;28;20048;-57
2023/07/01 08:40:00;;;;;;;4.53;1.40;;;18.10;99.90;;;;;;5054222;28;20036;-60
2023/07/01 08:42:43;;;;;;;2.97;1.38;;;18.20;99.90;;;;;;5054440;28;20068;-60
2023/07/01 08:45:10;;;;;;;4.72;1.38;;;18.20;99.90;;;;;;5054383;28;20021;-59
2023/07/01 08:47:36;;;;;;;3.22;1.60;;;18.20;99.90;;;;;;5054197;28;20021;-58
2023/07/01 08:50:06;;;;;;;4.65;1.60;;;18.20;99.90;;;;;;5054319;28;20139;-54
2023/07/01 08:52:41;;;;;;;1.83;1.30;;;18.30;99.90;;;;;;5054587;28;20017;-58
2023/07/01 08:55:09;;;;;;;4.70;2.25;;;18.20;99.90;;;;;;5054056;28;20025;-58
2023/07/01 08:57:36;;;;;;;2.60;1.40;;;18.30;99.90;;;;;;5054365;28;20029;-59
2023/07/01 09:00:02;;;;;;;2.03;1.42;;;18.40;99.90;;;;;;5054126;28;20083;-58
2023/07/01 09:02:28;;;;;;;3.53;1.17;;;18.60;99.90;;;;;;5054176;28;20025;-58
2023/07/01 09:04:54;;;;;;;4.95;1.30;;;18.70;99.90;;;;;;5053995;28;20048;-57
2023/07/01 09:07:20;;;;;;;2.72;1.00;;;18.90;99.90;;;;;;5053909;28;20025;-58
2023/07/01 09:09:45;;;;;;;1.73;1.20;;;18.80;99.90;;;;;;5053837;28;20025;-58
2023/07/01 09:12:11;;;;;;;3.78;1.33;;;18.90;99.90;;;;;;5054072;28;20415;-60
2023/07/01 09:15:03;;;;;;;2.45;0.98;;;18.80;99.90;;;;;;5053970;28;20033;-57
2023/07/01 09:17:30;;;;;;;1.38;1.23;;;18.90;99.90;;;;;;5053689;28;20041;-60
2023/07/01 09:20:04;;;;;;;2.10;1.20;;;19.10;99.90;;;;;;5053627;28;20131;-61
2023/07/01 09:22:31;;;;;;;3.42;1.40;;;19.20;99.90;;;;;;5053737;28;20387;-59
2023/07/01 09:24:57;;;;;;;2.42;1.20;;;19.20;99.90;;;;;;5053536;28;20025;-59
2023/07/01 09:27:24;;;;;;;1.55;1.30;;;19.20;99.90;;;;;;5053577;28;20040;-59
2023/07/01 09:29:52;;;;;;;2.03;1.25;;;19.30;99.90;;;;;;5053516;28;20021;-60
2023/07/01 09:32:26;;;;;;;2.63;1.30;;;19.30;99.90;;;;;;5053648;28;20433;-59
2023/07/01 09:34:57;;;;;;;2.55;1.17;;;19.30;99.90;;;;;;5053341;28;20032;-59
2023/07/01 09:37:26;;;;;;;5.55;1.00;;;19.30;99.90;;;;;;5053381;28;20595;-60
2023/07/01 09:39:52;;;;;;;1.52;0.82;;;19.10;99.90;;;;;;5052728;28;20032;-56
2023/07/01 09:42:20;;;;;;;0.95;0.73;;;19.10;99.90;;;;;;5053428;28;20029;-60
2023/07/01 09:45:06;;;;;;;1.92;0.60;;;19.10;99.90;;;;;;5053205;28;20016;-57
2023/07/01 09:47:32;;;;;;;0.80;0.70;;;19.20;99.90;;;;;;5053169;28;20507;-58
2023/07/01 09:49:58;;;;;;;1.77;0.75;;;19.20;99.90;;;;;;5053194;28;20566;-58
2023/07/01 09:52:33;;;;;;;0.90;0.80;;;19.30;99.90;;;;;;5053566;28;20108;-61
2023/07/01 09:55:02;;;;;;;1.60;0.77;;;19.20;99.90;;;;;;5053218;28;20028;-58
2023/07/01 09:57:28;;;;;;;2.17;0.98;;;19.30;99.90;;;;;;5052952;28;20088;-59
2023/07/01 09:59:54;;;;;;;0.70;0.70;;;19.30;99.90;;;;;;5052904;28;20065;-56
2023/07/01 10:02:19;;;;;;;0.82;0.63;;;19.10;99.90;;;;;;5053024;28;20076;-53
2023/07/01 10:04:45;;;;;;;3.33;0.80;;;19.10;99.90;;;;;;5052829;28;20025;-57
2023/07/01 10:07:11;;;;;;;1.10;0.50;;;19.00;99.90;;;;;;5052857;28;20120;-57
2023/07/01 10:09:43;;;;;;;0.88;0.70;;;19.00;99.90;;;;;;5052848;28;20053;-58
2023/07/01 10:12:09;;;;;;;1.40;1.00;;;19.00;99.90;;;;;;5052775;28;20048;-57
2023/07/01 10:14:35;;;;;;;0.50;0.50;;;19.10;99.90;;;;;;5052739;28;20033;-58
2023/07/01 10:17:01;;;;;;;1.75;0.70;;;19.10;99.90;;;;;;5052493;28;20484;-60
2023/07/01 10:19:32;;;;;;;0.70;0.65;;;19.10;99.90;;;;;;5052705;28;20465;-60
2023/07/01 10:22:22;;;;;;;0.50;0.50;;;19.30;99.90;;;;;;5052539;28;20506;-54
2023/07/01 10:25:03;;;;;;;0.73;0.60;;;19.40;99.90;;;;;;5054186;28;20066;-61
2023/07/01 10:27:58;;;;;;;0.95;0.50;;;19.40;99.90;;;;;;5054093;28;20067;-59
2023/07/01 10:30:25;;;;;;;0.85;0.55;;;19.30;99.90;;;;;;5053234;28;20031;-61
2023/07/01 10:32:50;;;;;;;0.60;0.47;;;19.30;99.90;;;;;;5053106;28;20049;-58
2023/07/01 10:35:16;;;;;;;2.63;0.70;;;19.30;99.90;;;;;;5052565;28;20521;-61
2023/07/01 10:37:42;;;;;;;1.13;0.65;;;19.20;99.90;;;;;;5052506;28;20036;-61
2023/07/01 10:40:31;;;;;;;1.27;0.90;;;19.20;99.90;;;;;;5052400;28;20087;-62
2023/07/01 10:43:18;;;;;;;1.10;0.63;;;19.20;99.90;;;;;;5051838;28;20029;-59
2023/07/01 10:45:44;;;;;;;0.70;0.70;;;19.10;99.90;;;;;;5052040;28;20050;-57
2023/07/01 10:48:16;;;;;;;1.65;0.55;;;19.20;99.90;;;;;;5052157;28;20013;-59
2023/07/01 10:51:02;;;;;;;2.95;0.77;;;19.10;99.90;;;;;;5052274;28;20017;-57
2023/07/01 10:53:29;;;;;;;1.38;0.65;;;19.00;99.90;;;;;;5051544;28;20108;-55
2023/07/01 10:56:13;;;;;;;0.88;0.57;;;19.00;99.90;;;;;;5051927;28;20021;-58
2023/07/01 10:58:39;;;;;;;1.75;0.73;;;18.90;99.90;;;;;;5051923;28;20491;-57
2023/07/01 11:01:05;;;;;;;1.30;0.77;;;19.10;99.90;;;;;;5051854;28;20040;-58
2023/07/01 11:03:33;;;;;;;0.60;0.45;;;19.30;99.90;;;;;;5051819;28;20033;-58
2023/07/01 11:06:01;;;;;;;3.15;0.60;;;19.20;99.90;;;;;;5051692;28;20021;-58
2023/07/01 11:08:29;;;;;;;2.25;0.70;;;19.00;99.90;;;;;;5051701;28;20071;-56
2023/07/01 11:10:55;;;;;;;0.75;0.40;;;19.00;99.90;;;;;;5051679;28;20479;-57
2023/07/01 11:13:21;;;;;;;2.40;0.60;;;19.00;99.90;;;;;;5051674;28;20037;-59
2023/07/01 11:16:07;;;;;;;1.73;0.70;;;19.10;99.90;;;;;;5051549;28;20386;-58
2023/07/01 11:18:43;;;;;;;3.60;0.80;;;19.20;99.90;;;;;;5051373;28;20056;-56
2023/07/01 11:21:10;;;;;;;4.57;0.60;;;19.20;99.90;;;;;;5051428;28;20376;-55
2023/07/01 11:23:37;;;;;;;0.90;0.70;;;19.00;99.90;;;;;;5051614;28;20364;-57
2023/07/01 11:26:02;;;;;;;1.80;0.80;;;18.80;99.90;;;;;;5051383;28;20056;-56
2023/07/01 11:28:37;;;;;;;0.93;0.60;;;18.70;99.90;;;;;;5051276;28;20056;-54
2023/07/01 11:31:17;;;;;;;0.68;0.68;;;18.80;99.90;;;;;;5051391;28;20510;-57
2023/07/01 11:33:47;;;;;;;0.70;0.63;;;18.70;99.90;;;;;;5051329;28;20029;-57
2023/07/01 11:36:17;;;;;;;0.95;0.90;;;18.60;99.90;;;;;;5051291;28;20482;-55
2023/07/01 11:38:44;;;;;;;2.15;0.80;;;18.70;99.90;;;;;;5051169;28;20025;-60
2023/07/01 11:41:28;;;;;;;1.02;0.75;;;18.80;99.90;;;;;;5051268;28;20503;-58
2023/07/01 11:43:54;;;;;;;5.88;0.70;;;18.90;99.90;;;;;;5050988;28;20059;-60
2023/07/01 11:46:31;;;;;;;0.75;0.60;;;18.90;99.90;;;;;;5051484;28;20021;-57
2023/07/01 11:48:57;;;;;;;1.50;0.60;;;18.90;99.90;;;;;;5051011;28;20028;-61
2023/07/01 11:51:39;;;;;;;0.90;0.60;;;18.90;99.90;;;;;;5051305;28;20013;-57
2023/07/01 11:54:05;;;;;;;1.02;0.55;;;18.80;99.90;;;;;;5051030;28;20494;-59
2023/07/01 11:56:30;;;;;;;1.65;0.77;;;18.80;99.90;;;;;;5051066;28;20037;-57
2023/07/01 11:58:56;;;;;;;2.15;0.55;;;18.80;99.90;;;;;;5050944;28;20096;-55
2023/07/01 12:01:23;;;;;;;0.40;0.40;;;18.90;99.90;;;;;;5051136;28;20021;-55
2023/07/01 12:03:48;;;;;;;0.40;0.40;;;18.90;99.90;;;;;;5053274;28;20025;-53
2023/07/01 12:06:17;;;;;;;0.50;0.50;;;18.90;99.90;;;;;;5055157;28;20478;-60
2023/07/01 12:08:57;;;;;;;2.05;0.57;;;19.00;99.90;;;;;;5054949;28;20029;-60
2023/07/01 12:11:24;;;;;;;1.55;0.40;;;19.10;99.90;;;;;;5055171;28;20071;-60
2023/07/01 12:13:51;;;;;;;0.63;0.63;;;19.10;99.90;;;;;;5053689;28;20051;-60
2023/07/01 12:16:17;;;;;;;1.48;0.70;;;19.20;99.90;;;;;;5055287;28;20467;-61
2023/07/01 12:18:43;;;;;;;2.90;0.52;;;19.40;99.90;;;;;;5054892;28;20048;-60
2023/07/01 12:21:09;;;;;;;0.73;0.73;;;19.50;99.90;;;;;;5054807;28;20067;-60
2023/07/01 12:23:42;;;;;;;0.70;0.68;;;19.30;99.90;;;;;;5054575;28;20034;-61
2023/07/01 12:26:08;;;;;;;0.88;0.77;;;19.30;99.90;;;;;;5054712;28;20055;-59
2023/07/01 12:28:36;;;;;;;0.93;0.68;;;19.40;99.90;;;;;;5054571;28;20083;-60
2023/07/01 12:31:02;;;;;;;0.50;0.50;;;19.50;99.90;;;;;;5054935;28;20364;-60
2023/07/01 12:33:27;;;;;;;6.00;0.80;;;19.50;99.90;;;;;;5054808;28;20036;-59
2023/07/01 12:35:55;;;;;;;1.33;0.70;;;19.50;99.90;;;;;;5054642;28;20024;-61
2023/07/01 12:38:21;;;;;;;3.67;1.00;;;19.50;99.90;;;;;;5054531;28;20029;-61
2023/07/01 12:40:47;;;;;;;1.67;1.13;;;19.40;99.90;;;;;;5054508;28;20036;-60
2023/07/01 12:43:13;;;;;;;1.98;0.95;;;19.30;99.90;;;;;;5054330;28;20679;-58
2023/07/01 12:45:38;;;;;;;1.55;0.90;;;19.30;99.90;;;;;;5054470;28;20022;-54
2023/07/01 12:48:05;;;;;;;1.00;0.90;;;19.40;99.90;;;;;;5054128;28;20029;-57